Time;durP1;ratioP1;P1;durP2;ratioP2;P2;SDS_P1;SDS_P2;PMS_P1;PMS_P2;Temp;Humidity;BMP_temperature;BMP_pressure;BME280_temperature;BME280_humidity;BME280_pressure;Samples;Min_cycle;Max_cycle;Signal;HPM_P1;HPM_P2
2021/03/19 00:06:57;;;;;;;70.62;11.32;;;;;;;;;;4388246;28;20086;-49
2021/03/19 00:09:24;;;;;;;69.12;11.25;;;;;;;;;;4191502;34;20082;-47
2021/03/19 00:11:50;;;;;;;70.70;10.75;;;;;;;;;;4179170;34;20106;-50
2021/03/19 00:14:16;;;;;;;65.10;11.32;;;;;;;;;;4191567;34;20098;-54
2021/03/19 00:16:42;;;;;;;55.30;11.93;;;;;;;;;;4190643;34;20132;-49
2021/03/19 00:19:08;;;;;;;51.83;10.80;;;;;;;;;;4191347;34;20553;-51
2021/03/19 00:21:34;;;;;;;76.85;11.68;;;;;;;;;;4178757;34;20129;-47
2021/03/19 00:24:00;;;;;;;57.90;10.50;;;;;;;;;;4191433;34;20250;-50
2021/03/19 00:26:26;;;;;;;57.97;8.93;;;;;;;;;;4191413;34;20189;-50
2021/03/19 00:28:53;;;;;;;49.67;9.80;;;;;;;;;;4191743;34;20564;-53
2021/03/19 00:31:19;;;;;;;73.28;10.10;;;;;;;;;;4191334;34;20221;-51
2021/03/19 00:33:45;;;;;;;55.85;9.10;;;;;;;;;;4190073;34;20121;-51
2021/03/19 00:36:11;;;;;;;56.83;9.27;;;;;;;;;;4191276;34;20136;-53
2021/03/19 00:38:37;;;;;;;55.55;10.27;;;;;;;;;;4190890;34;20099;-50
2021/03/19 00:41:03;;;;;;;67.37;11.18;;;;;;;;;;4191106;34;20114;-48
2021/03/19 00:43:30;;;;;;;53.33;12.05;;;;;;;;;;4191209;34;20091;-48
2021/03/19 00:45:55;;;;;;;64.20;11.20;;;;;;;;;;4190690;34;20447;-50
2021/03/19 00:48:22;;;;;;;60.30;11.43;;;;;;;;;;4191242;34;20142;-50
2021/03/19 00:50:48;;;;;;;61.63;10.63;;;;;;;;;;4178689;34;20103;-52
2021/03/19 00:53:14;;;;;;;63.22;10.65;;;;;;;;;;4178543;34;20113;-47
2021/03/19 00:55:40;;;;;;;55.55;10.63;;;;;;;;;;4191041;34;20118;-48
2021/03/19 00:58:06;;;;;;;77.00;12.60;;;;;;;;;;4191282;34;20132;-51
2021/03/19 01:00:34;;;;;;;64.80;13.25;;;;;;;;;;4191378;34;20133;-49
2021/03/19 01:03:00;;;;;;;52.78;11.10;;;;;;;;;;4191294;34;20105;-49
2021/03/19 01:05:29;;;;;;;66.37;10.93;;;;;;;;;;4190927;34;20120;-48
2021/03/19 01:07:55;;;;;;;65.62;11.60;;;;;;;;;;4191213;34;20166;-47
2021/03/19 01:10:26;;;;;;;65.65;11.57;;;;;;;;;;4190925;34;20139;-48
2021/03/19 01:12:52;;;;;;;52.95;11.70;;;;;;;;;;4191335;34;20141;-52
2021/03/19 01:15:21;;;;;;;52.25;9.73;;;;;;;;;;4190925;34;20605;-49
2021/03/19 01:17:48;;;;;;;46.17;9.80;;;;;;;;;;4191238;34;20450;-48
2021/03/19 01:20:17;;;;;;;54.00;11.35;;;;;;;;;;4178394;34;20238;-48
2021/03/19 01:22:43;;;;;;;46.10;10.35;;;;;;;;;;4191049;34;20624;-52
2021/03/19 01:25:16;;;;;;;53.95;9.98;;;;;;;;;;4190651;34;20640;-53
2021/03/19 01:27:43;;;;;;;48.75;10.77;;;;;;;;;;4191192;34;20117;-52
2021/03/19 01:30:10;;;;;;;47.08;9.48;;;;;;;;;;4190836;34;20537;-49
2021/03/19 01:32:36;;;;;;;55.42;10.25;;;;;;;;;;4190894;34;20125;-49
2021/03/19 01:35:04;;;;;;;63.42;11.00;;;;;;;;;;4191146;34;20118;-51
2021/03/19 01:37:29;;;;;;;59.92;10.73;;;;;;;;;;4190735;34;20553;-53
2021/03/19 01:39:55;;;;;;;60.05;11.12;;;;;;;;;;4190681;34;20158;-51
2021/03/19 01:42:21;;;;;;;62.25;10.95;;;;;;;;;;4190701;34;20229;-53
2021/03/19 01:45:21;;;;;;;53.35;9.35;;;;;;;;;;4190649;34;20442;-55
2021/03/19 01:48:24;;;;;;;47.20;8.65;;;;;;;;;;4177051;34;20122;-54
2021/03/19 01:51:28;;;;;;;56.40;11.38;;;;;;;;;;4177565;34;20098;-55
2021/03/19 01:54:31;;;;;;;62.25;11.27;;;;;;;;;;4179275;34;20133;-51
2021/03/19 01:57:34;;;;;;;48.38;10.68;;;;;;;;;;4178983;34;20126;-53
2021/03/19 02:00:38;;;;;;;64.93;14.95;;;;;;;;;;4178825;34;20205;-51
2021/03/19 02:03:41;;;;;;;64.95;10.70;;;;;;;;;;4178952;34;20249;-51
2021/03/19 02:06:45;;;;;;;58.60;10.40;;;;;;;;;;4178674;34;20190;-53
2021/03/19 02:09:49;;;;;;;62.05;9.80;;;;;;;;;;4178834;34;20115;-50
2021/03/19 02:12:52;;;;;;;49.33;11.07;;;;;;;;;;4178946;34;20583;-52
2021/03/19 02:15:55;;;;;;;51.97;9.25;;;;;;;;;;4178723;34;20134;-50
2021/03/19 02:18:59;;;;;;;70.20;12.00;;;;;;;;;;4178788;34;20149;-51
2021/03/19 02:22:02;;;;;;;51.03;10.45;;;;;;;;;;4191329;34;20121;-50
2021/03/19 02:25:06;;;;;;;54.17;10.55;;;;;;;;;;4192498;34;20125;-56
2021/03/19 02:28:09;;;;;;;63.75;11.55;;;;;;;;;;4192298;34;20109;-53
2021/03/19 02:31:13;;;;;;;54.33;8.82;;;;;;;;;;4191944;34;20173;-55
2021/03/19 02:33:58;;;;;;;48.70;8.80;;;;;;;;;;4192368;34;20099;-53
2021/03/19 02:36:26;;;;;;;57.47;10.70;;;;;;;;;;4179654;34;20126;-56
2021/03/19 02:38:52;;;;;;;55.78;9.63;;;;;;;;;;4192270;34;20118;-57
2021/03/19 02:41:19;;;;;;;53.65;8.90;;;;;;;;;;4179336;34;20140;-57
2021/03/19 02:43:44;;;;;;;51.08;8.77;;;;;;;;;;4192157;34;20110;-54
2021/03/19 02:46:10;;;;;;;48.47;10.63;;;;;;;;;;4192230;34;20127;-50
2021/03/19 02:48:36;;;;;;;60.72;10.93;;;;;;;;;;4192318;34;20141;-53
2021/03/19 02:51:03;;;;;;;50.20;7.68;;;;;;;;;;4179414;34;20534;-51
2021/03/19 02:53:29;;;;;;;41.85;9.23;;;;;;;;;;4192178;34;20113;-52
2021/03/19 02:55:57;;;;;;;51.40;9.38;;;;;;;;;;4179191;34;20121;-53
2021/03/19 02:58:23;;;;;;;56.60;9.05;;;;;;;;;;4191920;34;20522;-53
2021/03/19 03:00:49;;;;;;;56.35;9.20;;;;;;;;;;4191952;34;20141;-53
2021/03/19 03:03:15;;;;;;;52.05;8.25;;;;;;;;;;4191782;34;20186;-48
2021/03/19 03:05:41;;;;;;;51.92;9.43;;;;;;;;;;4191594;34;20197;-49
2021/03/19 03:08:08;;;;;;;55.50;9.35;;;;;;;;;;4191719;34;20158;-57
2021/03/19 03:10:35;;;;;;;52.40;8.35;;;;;;;;;;4192146;34;20222;-58
2021/03/19 03:13:01;;;;;;;43.08;8.75;;;;;;;;;;4192257;34;20102;-59
2021/03/19 03:15:27;;;;;;;50.72;9.05;;;;;;;;;;4179135;34;20123;-50
2021/03/19 03:17:53;;;;;;;48.00;8.90;;;;;;;;;;4191982;34;20213;-48
2021/03/19 03:20:25;;;;;;;76.53;11.30;;;;;;;;;;4178947;34;20119;-49
2021/03/19 03:23:01;;;;;;;52.95;10.27;;;;;;;;;;4191737;34;20121;-47
2021/03/19 03:25:26;;;;;;;48.83;10.80;;;;;;;;;;4178922;34;20197;-56
2021/03/19 03:27:53;;;;;;;49.97;10.32;;;;;;;;;;4191865;34;20102;-47
2021/03/19 03:30:30;;;;;;;75.62;14.57;;;;;;;;;;4191320;34;20472;-47
2021/03/19 03:32:57;;;;;;;55.53;11.73;;;;;;;;;;4177780;34;20529;-51
2021/03/19 03:35:23;;;;;;;62.60;11.73;;;;;;;;;;4191818;34;20152;-52
2021/03/19 03:37:49;;;;;;;54.17;10.48;;;;;;;;;;4191922;34;20442;-53
2021/03/19 03:40:18;;;;;;;60.10;12.10;;;;;;;;;;4191541;34;20117;-58
2021/03/19 03:42:44;;;;;;;55.55;11.38;;;;;;;;;;4192109;34;20114;-47
2021/03/19 03:45:10;;;;;;;53.00;8.60;;;;;;;;;;4191572;34;20118;-50
2021/03/19 03:47:36;;;;;;;59.25;9.60;;;;;;;;;;4192023;34;20102;-49
2021/03/19 03:50:09;;;;;;;45.25;8.82;;;;;;;;;;4178885;34;20511;-47
2021/03/19 03:52:35;;;;;;;52.35;10.27;;;;;;;;;;4191834;34;20329;-45
2021/03/19 03:55:01;;;;;;;63.95;10.63;;;;;;;;;;4191451;34;20133;-46
2021/03/19 03:57:26;;;;;;;50.85;8.80;;;;;;;;;;4191376;34;20452;-47
2021/03/19 03:59:52;;;;;;;73.90;11.15;;;;;;;;;;4191566;34;20122;-47
2021/03/19 04:02:20;;;;;;;51.88;10.48;;;;;;;;;;4191598;34;20122;-46
2021/03/19 04:04:47;;;;;;;61.60;13.55;;;;;;;;;;4191210;34;20106;-48
2021/03/19 04:07:14;;;;;;;45.25;7.97;;;;;;;;;;4191364;34;20106;-46
2021/03/19 04:09:40;;;;;;;60.92;10.52;;;;;;;;;;4191684;34;20110;-48
2021/03/19 04:12:07;;;;;;;58.45;10.20;;;;;;;;;;4191621;34;20103;-48
2021/03/19 04:14:33;;;;;;;56.40;8.95;;;;;;;;;;4190587;34;20102;-52
2021/03/19 04:16:59;;;;;;;67.15;10.52;;;;;;;;;;4191342;34;20098;-49
2021/03/19 04:19:25;;;;;;;60.67;8.95;;;;;;;;;;4191662;34;20114;-48
2021/03/19 04:21:52;;;;;;;57.47;8.65;;;;;;;;;;4191387;34;20129;-49
2021/03/19 04:24:18;;;;;;;63.60;10.38;;;;;;;;;;4191474;34;20129;-49
2021/03/19 04:26:44;;;;;;;69.45;11.02;;;;;;;;;;4191290;34;20122;-47
2021/03/19 04:29:09;;;;;;;71.03;11.02;;;;;;;;;;4191279;34;20142;-49
2021/03/19 04:31:35;;;;;;;65.05;11.07;;;;;;;;;;4190929;34;20225;-50
2021/03/19 04:34:01;;;;;;;68.78;9.75;;;;;;;;;;4191474;34;20126;-49
2021/03/19 04:36:43;;;;;;;82.70;10.20;;;;;;;;;;4191479;34;20110;-48
2021/03/19 04:39:12;;;;;;;80.78;12.10;;;;;;;;;;4179627;34;20118;-47
2021/03/19 04:41:38;;;;;;;82.47;12.48;;;;;;;;;;4191162;34;20177;-49
2021/03/19 04:44:05;;;;;;;70.55;10.52;;;;;;;;;;4167206;34;20431;-47
2021/03/19 04:46:31;;;;;;;72.87;10.95;;;;;;;;;;4178383;34;20617;-47
2021/03/19 04:48:57;;;;;;;74.20;10.77;;;;;;;;;;4190941;34;20168;-49
2021/03/19 04:51:23;;;;;;;74.20;12.13;;;;;;;;;;4191103;34;20213;-47
2021/03/19 04:53:49;;;;;;;69.07;10.82;;;;;;;;;;4191389;34;20129;-47
2021/03/19 04:56:15;;;;;;;76.10;11.15;;;;;;;;;;4178230;34;20121;-52
2021/03/19 04:58:41;;;;;;;50.60;9.00;;;;;;;;;;4178249;34;20131;-50
2021/03/19 05:01:07;;;;;;;58.42;9.55;;;;;;;;;;4178287;34;20110;-50
2021/03/19 05:03:33;;;;;;;65.32;10.43;;;;;;;;;;4190609;34;20105;-51
2021/03/19 05:05:59;;;;;;;65.10;10.32;;;;;;;;;;4190784;34;20115;-53
2021/03/19 05:08:25;;;;;;;62.97;9.32;;;;;;;;;;4191125;34;20101;-54
2021/03/19 05:10:51;;;;;;;68.62;11.25;;;;;;;;;;4178070;34;20121;-51
2021/03/19 05:13:17;;;;;;;68.35;10.13;;;;;;;;;;4191188;34;20136;-52
2021/03/19 05:15:43;;;;;;;74.90;10.57;;;;;;;;;;4191133;34;20531;-49
2021/03/19 05:18:09;;;;;;;61.92;11.02;;;;;;;;;;4190888;34;20113;-50
2021/03/19 05:20:35;;;;;;;59.92;10.68;;;;;;;;;;4191091;34;20130;-51
2021/03/19 05:23:01;;;;;;;66.37;9.50;;;;;;;;;;4178195;34;20132;-52
2021/03/19 05:25:29;;;;;;;98.30;13.57;;;;;;;;;;4190569;34;20172;-54
2021/03/19 05:27:55;;;;;;;64.68;11.50;;;;;;;;;;4191257;34;20517;-48
2021/03/19 05:30:22;;;;;;;61.78;10.02;;;;;;;;;;4177849;34;20126;-48
2021/03/19 05:32:48;;;;;;;61.78;10.18;;;;;;;;;;4190516;34;20108;-47
2021/03/19 05:35:17;;;;;;;55.40;9.68;;;;;;;;;;4190625;34;20530;-47
2021/03/19 05:37:47;;;;;;;59.63;9.50;;;;;;;;;;4190799;34;20190;-49
2021/03/19 05:40:14;;;;;;;60.58;10.50;;;;;;;;;;4190835;34;20106;-51
2021/03/19 05:42:40;;;;;;;63.42;9.82;;;;;;;;;;4178160;34;20220;-51
2021/03/19 05:45:28;;;;;;;68.18;11.43;;;;;;;;;;4190807;34;20145;-50
2021/03/19 05:47:55;;;;;;;75.75;11.12;;;;;;;;;;4190669;34;20107;-52
2021/03/19 05:50:33;;;;;;;63.63;9.20;;;;;;;;;;4209751;28;20128;-50
2021/03/19 05:53:16;;;;;;;66.62;10.32;;;;;;;;;;4191863;34;20593;-50
2021/03/19 05:55:42;;;;;;;58.58;9.52;;;;;;;;;;4204510;34;20511;-51
2021/03/19 05:58:13;;;;;;;60.78;8.82;;;;;;;;;;4204301;34;20094;-50
2021/03/19 06:00:39;;;;;;;45.97;7.75;;;;;;;;;;4191619;34;20132;-50
2021/03/19 06:03:05;;;;;;;60.58;9.27;;;;;;;;;;4191092;34;20114;-53
2021/03/19 06:05:31;;;;;;;65.25;8.73;;;;;;;;;;4204187;34;20120;-49
2021/03/19 06:08:02;;;;;;;48.40;7.22;;;;;;;;;;4204357;34;20113;-49
2021/03/19 06:10:29;;;;;;;46.78;10.65;;;;;;;;;;4191896;34;20729;-50
2021/03/19 06:13:18;;;;;;;48.17;8.73;;;;;;;;;;4204185;34;20490;-49
2021/03/19 06:15:49;;;;;;;62.58;9.32;;;;;;;;;;4191493;34;20120;-52
2021/03/19 06:18:35;;;;;;;61.20;9.68;;;;;;;;;;4191056;34;20125;-49
2021/03/19 06:21:12;;;;;;;52.62;9.18;;;;;;;;;;4192423;34;20144;-49
2021/03/19 06:23:39;;;;;;;61.50;9.20;;;;;;;;;;4204024;34;20126;-48
2021/03/19 06:26:25;;;;;;;61.58;9.25;;;;;;;;;;4191134;34;20108;-49
2021/03/19 06:29:08;;;;;;;78.70;12.18;;;;;;;;;;4191339;34;20106;-48
2021/03/19 06:31:34;;;;;;;57.35;11.52;;;;;;;;;;4191487;34;20595;-48
2021/03/19 06:34:23;;;;;;;55.47;8.95;;;;;;;;;;4190649;34;20125;-49
2021/03/19 06:37:00;;;;;;;43.85;8.77;;;;;;;;;;4192178;34;20951;-48
2021/03/19 06:39:34;;;;;;;55.28;8.90;;;;;;;;;;4206334;34;20580;-50
2021/03/19 06:42:05;;;;;;;66.70;10.93;;;;;;;;;;4206010;34;20152;-48
2021/03/19 06:44:31;;;;;;;86.15;13.55;;;;;;;;;;4206078;34;20129;-50
2021/03/19 06:46:58;;;;;;;68.65;10.70;;;;;;;;;;4193028;34;20201;-50
2021/03/19 06:49:24;;;;;;;74.47;10.10;;;;;;;;;;4205773;34;20430;-52
2021/03/19 06:51:52;;;;;;;74.50;12.05;;;;;;;;;;4205999;34;20108;-50
2021/03/19 06:54:45;;;;;;;54.55;10.65;;;;;;;;;;4205901;34;20236;-50
2021/03/19 06:57:13;;;;;;;75.90;14.70;;;;;;;;;;4205930;34;20149;-50
2021/03/19 06:59:44;;;;;;;95.47;15.38;;;;;;;;;;4206287;34;20118;-51
2021/03/19 07:02:21;;;;;;;73.55;11.05;;;;;;;;;;4205938;34;20178;-52
2021/03/19 07:05:13;;;;;;;77.22;12.00;;;;;;;;;;4192872;34;20105;-52
2021/03/19 07:07:50;;;;;;;68.68;11.15;;;;;;;;;;4195011;34;20105;-49
2021/03/19 07:10:41;;;;;;;69.70;10.18;;;;;;;;;;4193124;34;20122;-51
2021/03/19 07:13:26;;;;;;;68.85;10.50;;;;;;;;;;4205848;34;20221;-46
2021/03/19 07:16:28;;;;;;;77.80;12.80;;;;;;;;;;4193333;34;20225;-48
2021/03/19 07:18:56;;;;;;;76.65;12.73;;;;;;;;;;4183580;34;20217;-46
2021/03/19 07:21:46;;;;;;;99.87;12.82;;;;;;;;;;4205734;34;20533;-46
2021/03/19 07:24:31;;;;;;;66.30;11.50;;;;;;;;;;4205651;34;20094;-46
2021/03/19 07:27:19;;;;;;;83.57;12.02;;;;;;;;;;4205716;34;20122;-51
2021/03/19 07:29:50;;;;;;;72.32;10.80;;;;;;;;;;4205693;34;20128;-52
2021/03/19 07:32:23;;;;;;;89.00;13.40;;;;;;;;;;4192581;34;20133;-53
2021/03/19 07:34:55;;;;;;;76.50;10.52;;;;;;;;;;4193030;34;20098;-52
2021/03/19 07:37:29;;;;;;;78.28;12.73;;;;;;;;;;4205780;34;20621;-51
2021/03/19 07:40:01;;;;;;;72.37;11.20;;;;;;;;;;4192748;34;20098;-50
2021/03/19 07:42:45;;;;;;;80.68;12.77;;;;;;;;;;4205555;34;20133;-49
2021/03/19 07:45:30;;;;;;;53.95;9.38;;;;;;;;;;4205530;34;20094;-48
2021/03/19 07:48:28;;;;;;;70.85;11.95;;;;;;;;;;4205235;34;20113;-49
2021/03/19 07:51:08;;;;;;;74.35;13.90;;;;;;;;;;4194396;34;20179;-49
2021/03/19 07:53:49;;;;;;;76.62;14.15;;;;;;;;;;4193008;34;20121;-49
2021/03/19 07:56:26;;;;;;;79.90;13.75;;;;;;;;;;4192944;34;20501;-48
2021/03/19 07:59:05;;;;;;;59.60;8.77;;;;;;;;;;4192872;34;20096;-49
2021/03/19 08:02:00;;;;;;;81.18;14.13;;;;;;;;;;4192306;34;20112;-48
2021/03/19 08:04:31;;;;;;;91.63;13.07;;;;;;;;;;4194726;34;20117;-47
2021/03/19 08:07:01;;;;;;;85.00;13.50;;;;;;;;;;4205375;34;20106;-48
2021/03/19 08:09:42;;;;;;;84.70;14.18;;;;;;;;;;4205300;34;20117;-50
2021/03/19 08:12:15;;;;;;;64.47;12.00;;;;;;;;;;4192506;34;20137;-49
2021/03/19 08:15:20;;;;;;;66.18;12.20;;;;;;;;;;4180053;34;20506;-49
2021/03/19 08:18:03;;;;;;;88.80;14.85;;;;;;;;;;4181105;34;20132;-49
2021/03/19 08:20:41;;;;;;;63.40;10.82;;;;;;;;;;4192879;34;20552;-49
2021/03/19 08:23:25;;;;;;;79.50;12.55;;;;;;;;;;4192396;34;20189;-50
2021/03/19 08:25:51;;;;;;;73.00;13.07;;;;;;;;;;4205179;34;20524;-49
2021/03/19 08:28:23;;;;;;;69.05;11.25;;;;;;;;;;4205254;34;20139;-56
2021/03/19 08:31:06;;;;;;;80.68;12.80;;;;;;;;;;4192148;34;20191;-52
2021/03/19 08:33:50;;;;;;;78.43;12.30;;;;;;;;;;4178889;34;20101;-51
2021/03/19 08:36:32;;;;;;;54.10;9.13;;;;;;;;;;4191106;34;20134;-49
2021/03/19 08:39:18;;;;;;;79.95;12.55;;;;;;;;;;4178597;34;20489;-53
2021/03/19 08:41:49;;;;;;;52.35;10.68;;;;;;;;;;4191024;34;20122;-55
2021/03/19 08:44:17;;;;;;;47.55;10.18;;;;;;;;;;4178420;34;20125;-52
2021/03/19 08:46:47;;;;;;;37.22;9.50;;;;;;;;;;4178620;34;20467;-48
2021/03/19 08:49:23;;;;;;;45.03;10.15;;;;;;;;;;4180455;34;20109;-54
2021/03/19 08:51:49;;;;;;;48.28;10.32;;;;;;;;;;4204785;34;20094;-50
2021/03/19 08:54:16;;;;;;;45.67;10.35;;;;;;;;;;4205109;34;20453;-52
2021/03/19 08:56:50;;;;;;;48.42;9.52;;;;;;;;;;4218286;28;20206;-53
2021/03/19 08:59:39;;;;;;;62.33;12.27;;;;;;;;;;4180569;34;20117;-51
2021/03/19 09:02:17;;;;;;;51.92;10.45;;;;;;;;;;4197057;34;20086;-50
2021/03/19 09:04:58;;;;;;;52.62;11.40;;;;;;;;;;4203375;34;20108;-50
2021/03/19 09:07:38;;;;;;;51.53;11.65;;;;;;;;;;4204799;34;20101;-51
2021/03/19 09:10:13;;;;;;;45.97;10.27;;;;;;;;;;4204725;34;20569;-53
2021/03/19 09:12:55;;;;;;;60.67;12.73;;;;;;;;;;4192137;34;20521;-52
2021/03/19 09:15:21;;;;;;;46.47;10.07;;;;;;;;;;4204524;34;20125;-51
2021/03/19 09:17:52;;;;;;;54.05;11.70;;;;;;;;;;4204827;34;20105;-52
2021/03/19 09:20:27;;;;;;;45.28;10.27;;;;;;;;;;4191815;34;20117;-53
2021/03/19 09:23:21;;;;;;;48.70;11.38;;;;;;;;;;4204712;34;20097;-51
2021/03/19 09:26:08;;;;;;;43.05;10.00;;;;;;;;;;4189749;34;20142;-55
2021/03/19 09:28:40;;;;;;;51.13;11.27;;;;;;;;;;4204604;34;20568;-58
2021/03/19 09:31:24;;;;;;;61.63;10.52;;;;;;;;;;4204357;34;20138;-53
2021/03/19 09:33:49;;;;;;;49.08;9.85;;;;;;;;;;4204228;34;20132;-53
2021/03/19 09:36:51;;;;;;;52.40;10.95;;;;;;;;;;4204448;34;20117;-53
2021/03/19 09:39:51;;;;;;;57.15;13.45;;;;;;;;;;4204466;34;20114;-50
2021/03/19 09:42:18;;;;;;;54.45;11.45;;;;;;;;;;4204216;34;20120;-51
2021/03/19 09:44:45;;;;;;;48.75;11.75;;;;;;;;;;4204407;34;20109;-56
2021/03/19 09:47:11;;;;;;;53.53;11.45;;;;;;;;;;4204520;34;20105;-50
2021/03/19 09:49:37;;;;;;;53.28;12.02;;;;;;;;;;4191346;34;20175;-54
2021/03/19 09:52:16;;;;;;;51.75;9.65;;;;;;;;;;4204383;34;20122;-50
2021/03/19 09:54:42;;;;;;;53.58;10.02;;;;;;;;;;4191647;34;20581;-51
2021/03/19 09:57:34;;;;;;;46.55;11.77;;;;;;;;;;4204094;34;20129;-55
2021/03/19 10:00:06;;;;;;;42.13;10.40;;;;;;;;;;4189025;34;20122;-52
2021/03/19 10:02:39;;;;;;;56.63;10.63;;;;;;;;;;4203819;34;20197;-55
2021/03/19 10:05:10;;;;;;;53.63;11.02;;;;;;;;;;4204202;34;20116;-53
2021/03/19 10:07:36;;;;;;;45.83;11.63;;;;;;;;;;4191614;34;20245;-57
2021/03/19 10:10:02;;;;;;;45.17;11.43;;;;;;;;;;4191428;34;20145;-56
2021/03/19 10:12:27;;;;;;;46.15;12.63;;;;;;;;;;4205109;34;20120;-56
2021/03/19 10:14:56;;;;;;;44.83;11.90;;;;;;;;;;4206681;34;20595;-52
2021/03/19 10:17:23;;;;;;;38.53;8.57;;;;;;;;;;4205875;34;20098;-55
2021/03/19 10:20:23;;;;;;;44.53;10.70;;;;;;;;;;4206632;34;20208;-55
2021/03/19 10:22:51;;;;;;;44.47;10.00;;;;;;;;;;4206186;34;20234;-54
2021/03/19 10:25:32;;;;;;;42.55;10.70;;;;;;;;;;4206054;34;20106;-54
2021/03/19 10:28:01;;;;;;;44.42;12.52;;;;;;;;;;4206165;34;20213;-53
2021/03/19 10:30:29;;;;;;;44.22;11.80;;;;;;;;;;4193379;34;20450;-55
2021/03/19 10:32:56;;;;;;;47.40;11.73;;;;;;;;;;4193010;34;20177;-56
2021/03/19 10:35:29;;;;;;;51.40;13.60;;;;;;;;;;4193559;34;20468;-57
2021/03/19 10:38:03;;;;;;;49.17;11.82;;;;;;;;;;4206209;34;20271;-54
2021/03/19 10:40:38;;;;;;;45.50;10.73;;;;;;;;;;4182335;34;20194;-52
2021/03/19 10:43:12;;;;;;;47.67;12.15;;;;;;;;;;4206117;34;20229;-59
2021/03/19 10:45:53;;;;;;;41.88;10.68;;;;;;;;;;4193619;34;20530;-52
2021/03/19 10:48:27;;;;;;;46.97;10.38;;;;;;;;;;4192910;34;20554;-54
2021/03/19 10:51:02;;;;;;;50.22;11.88;;;;;;;;;;4193374;34;20087;-57
2021/03/19 10:53:42;;;;;;;52.38;11.55;;;;;;;;;;4193420;34;20094;-54
2021/03/19 10:56:08;;;;;;;51.05;12.93;;;;;;;;;;4205995;34;20129;-53
2021/03/19 10:58:53;;;;;;;38.00;10.15;;;;;;;;;;4193192;34;20442;-52
2021/03/19 11:01:30;;;;;;;49.43;11.07;;;;;;;;;;4205741;34;20229;-57
2021/03/19 11:03:57;;;;;;;65.68;12.57;;;;;;;;;;4204239;34;20526;-50
2021/03/19 11:06:40;;;;;;;52.03;14.02;;;;;;;;;;4193091;34;20449;-53
2021/03/19 11:09:17;;;;;;;60.55;14.57;;;;;;;;;;4205919;34;20479;-52
2021/03/19 11:11:45;;;;;;;46.70;11.02;;;;;;;;;;4205700;34;20098;-49
2021/03/19 11:14:13;;;;;;;52.28;12.00;;;;;;;;;;4193124;34;20116;-51
2021/03/19 11:16:43;;;;;;;47.90;12.43;;;;;;;;;;4205730;34;20117;-49
2021/03/19 11:19:12;;;;;;;41.80;11.75;;;;;;;;;;4205337;34;20126;-52
2021/03/19 11:21:40;;;;;;;45.83;11.60;;;;;;;;;;4205632;34;20125;-53
2021/03/19 11:24:18;;;;;;;57.20;14.55;;;;;;;;;;4193021;34;20120;-49
2021/03/19 11:26:53;;;;;;;49.72;11.75;;;;;;;;;;4205432;34;20117;-50
2021/03/19 11:29:23;;;;;;;48.35;12.77;;;;;;;;;;4182141;34;20152;-51
2021/03/19 11:31:57;;;;;;;41.37;10.77;;;;;;;;;;4205728;34;20128;-52
2021/03/19 11:34:28;;;;;;;37.33;9.73;;;;;;;;;;4205175;34;20553;-53
2021/03/19 11:36:58;;;;;;;53.20;12.20;;;;;;;;;;4205494;34;20185;-52
2021/03/19 11:39:37;;;;;;;49.72;10.23;;;;;;;;;;4205852;34;20197;-50
2021/03/19 11:42:04;;;;;;;48.85;12.23;;;;;;;;;;4193079;34;20109;-53
2021/03/19 11:44:31;;;;;;;46.55;11.68;;;;;;;;;;4205497;34;20459;-50
2021/03/19 11:46:59;;;;;;;32.60;7.93;;;;;;;;;;4205473;34;20129;-52
2021/03/19 11:49:25;;;;;;;39.50;8.90;;;;;;;;;;4205246;34;20105;-52
2021/03/19 11:51:51;;;;;;;45.50;10.73;;;;;;;;;;4205685;34;20518;-52
2021/03/19 11:54:17;;;;;;;51.63;11.77;;;;;;;;;;4205390;34;20121;-51
2021/03/19 11:56:43;;;;;;;42.72;9.13;;;;;;;;;;4205238;34;20167;-53
2021/03/19 11:59:12;;;;;;;51.17;9.48;;;;;;;;;;4205412;34;20201;-54
2021/03/19 12:01:38;;;;;;;45.40;10.23;;;;;;;;;;4205251;34;20129;-52
2021/03/19 12:04:04;;;;;;;59.83;10.40;;;;;;;;;;4205336;34;20140;-55
2021/03/19 12:06:31;;;;;;;64.32;12.48;;;;;;;;;;4205364;34;20126;-52
2021/03/19 12:08:57;;;;;;;55.80;12.20;;;;;;;;;;4203940;34;20106;-49
2021/03/19 12:11:24;;;;;;;64.15;13.73;;;;;;;;;;4205165;34;20221;-50
2021/03/19 12:13:51;;;;;;;67.10;12.82;;;;;;;;;;4205464;34;20124;-50
2021/03/19 12:16:17;;;;;;;52.13;10.00;;;;;;;;;;4192376;34;20094;-52
2021/03/19 12:18:43;;;;;;;51.83;10.77;;;;;;;;;;4204918;34;20212;-51
2021/03/19 12:21:09;;;;;;;50.35;10.18;;;;;;;;;;4192319;34;20124;-55
2021/03/19 12:23:35;;;;;;;59.38;11.02;;;;;;;;;;4192387;34;20470;-52
2021/03/19 12:26:01;;;;;;;53.75;10.38;;;;;;;;;;4205204;34;20226;-55
2021/03/19 12:28:27;;;;;;;56.65;11.12;;;;;;;;;;4203728;34;20140;-53
2021/03/19 12:30:54;;;;;;;46.88;9.75;;;;;;;;;;4205051;34;20161;-51
2021/03/19 12:33:20;;;;;;;53.78;11.27;;;;;;;;;;4204882;34;20118;-50
2021/03/19 12:35:46;;;;;;;39.30;8.73;;;;;;;;;;4204427;34;20094;-62
2021/03/19 12:38:12;;;;;;;38.75;11.68;;;;;;;;;;4205290;34;20116;-60
2021/03/19 12:40:38;;;;;;;42.28;9.57;;;;;;;;;;4204933;34;20553;-59
2021/03/19 12:43:05;;;;;;;38.70;8.48;;;;;;;;;;4192285;34;20118;-58
2021/03/19 12:45:33;;;;;;;47.20;8.98;;;;;;;;;;4192114;34;20159;-58
2021/03/19 12:48:00;;;;;;;41.37;10.65;;;;;;;;;;4191943;34;20579;-52
2021/03/19 12:50:28;;;;;;;39.67;8.88;;;;;;;;;;4205138;34;20149;-51
2021/03/19 12:52:56;;;;;;;45.28;8.50;;;;;;;;;;4205134;34;20098;-51
2021/03/19 12:55:23;;;;;;;40.97;9.00;;;;;;;;;;4204908;34;20091;-50
2021/03/19 12:57:49;;;;;;;41.25;9.57;;;;;;;;;;4192142;34;20221;-49
2021/03/19 13:00:23;;;;;;;35.03;8.02;;;;;;;;;;4191774;34;20110;-50
2021/03/19 13:02:49;;;;;;;37.03;8.63;;;;;;;;;;4204493;34;20208;-48
2021/03/19 13:05:16;;;;;;;35.63;8.15;;;;;;;;;;4191854;34;20196;-47
2021/03/19 13:07:42;;;;;;;41.33;9.32;;;;;;;;;;4192317;34;20113;-50
2021/03/19 13:10:09;;;;;;;42.13;10.25;;;;;;;;;;4204689;34;20461;-49
2021/03/19 13:12:35;;;;;;;44.33;9.75;;;;;;;;;;4204985;34;20450;-51
2021/03/19 13:15:02;;;;;;;28.83;8.52;;;;;;;;;;4204966;34;20118;-57
2021/03/19 13:17:28;;;;;;;58.70;12.20;;;;;;;;;;4204626;34;20201;-50
2021/03/19 13:19:54;;;;;;;35.95;9.52;;;;;;;;;;4204769;34;20237;-54
2021/03/19 13:22:20;;;;;;;39.95;9.00;;;;;;;;;;4191818;34;20305;-50
2021/03/19 13:24:47;;;;;;;50.53;13.00;;;;;;;;;;4204663;34;20514;-49
2021/03/19 13:27:13;;;;;;;53.80;10.90;;;;;;;;;;4204390;34;20126;-50
2021/03/19 13:29:38;;;;;;;47.75;11.27;;;;;;;;;;4204630;34;20121;-50
2021/03/19 13:32:05;;;;;;;61.67;12.40;;;;;;;;;;4204464;34;20124;-50
2021/03/19 13:34:31;;;;;;;55.22;12.95;;;;;;;;;;4204435;34;20509;-52
2021/03/19 13:36:57;;;;;;;54.95;12.82;;;;;;;;;;4204400;34;20120;-49
2021/03/19 13:39:25;;;;;;;60.53;16.25;;;;;;;;;;4204762;34;20121;-50
2021/03/19 13:41:51;;;;;;;57.33;15.93;;;;;;;;;;4204512;34;20102;-48
2021/03/19 13:44:17;;;;;;;63.80;16.17;;;;;;;;;;4204472;34;20100;-47
2021/03/19 13:46:43;;;;;;;48.58;15.15;;;;;;;;;;4191570;34;20114;-46
2021/03/19 13:49:10;;;;;;;74.30;16.95;;;;;;;;;;4204117;34;20113;-48
2021/03/19 13:51:36;;;;;;;66.87;15.77;;;;;;;;;;4191700;34;20113;-48
2021/03/19 13:54:02;;;;;;;72.03;15.95;;;;;;;;;;4191660;34;20442;-47
2021/03/19 13:56:27;;;;;;;59.90;14.57;;;;;;;;;;4203961;34;20105;-47
2021/03/19 13:58:54;;;;;;;58.33;13.20;;;;;;;;;;4204383;34;20106;-48
2021/03/19 14:01:23;;;;;;;52.83;14.35;;;;;;;;;;4203742;34;20526;-48
2021/03/19 14:03:49;;;;;;;72.40;16.17;;;;;;;;;;4204183;34;20126;-50
2021/03/19 14:06:17;;;;;;;68.78;15.73;;;;;;;;;;4204040;34;20129;-48
2021/03/19 14:08:43;;;;;;;63.78;15.07;;;;;;;;;;4204218;34;20410;-48
2021/03/19 14:11:10;;;;;;;69.95;15.95;;;;;;;;;;4204315;34;20135;-48
2021/03/19 14:13:37;;;;;;;57.55;15.73;;;;;;;;;;4204205;34;20110;-46
2021/03/19 14:16:03;;;;;;;61.70;15.60;;;;;;;;;;4204035;34;20216;-48
2021/03/19 14:18:29;;;;;;;63.42;13.50;;;;;;;;;;4203849;34;20106;-46
2021/03/19 14:20:55;;;;;;;49.78;11.27;;;;;;;;;;4204048;34;20133;-52
2021/03/19 14:23:24;;;;;;;55.90;12.30;;;;;;;;;;4204095;34;20112;-48
2021/03/19 14:25:55;;;;;;;51.25;13.07;;;;;;;;;;4191050;34;20128;-48
2021/03/19 14:28:24;;;;;;;50.58;12.20;;;;;;;;;;4191394;34;20130;-49
2021/03/19 14:30:50;;;;;;;44.03;11.20;;;;;;;;;;4203978;34;20149;-47
2021/03/19 14:33:16;;;;;;;42.80;12.00;;;;;;;;;;4203501;34;20118;-52
2021/03/19 14:35:42;;;;;;;46.60;12.18;;;;;;;;;;4203759;34;20200;-50
2021/03/19 14:38:08;;;;;;;54.28;11.93;;;;;;;;;;4203916;34;20125;-53
2021/03/19 14:40:36;;;;;;;40.40;11.23;;;;;;;;;;4203710;34;20573;-52
2021/03/19 14:43:02;;;;;;;37.40;10.90;;;;;;;;;;4203807;34;20120;-52
2021/03/19 14:45:28;;;;;;;50.03;12.93;;;;;;;;;;4203662;34;20614;-51
2021/03/19 14:47:54;;;;;;;45.42;10.68;;;;;;;;;;4190770;34;20126;-50
2021/03/19 14:50:22;;;;;;;44.25;12.32;;;;;;;;;;4203690;34;20566;-49
2021/03/19 14:52:49;;;;;;;41.25;10.80;;;;;;;;;;4203728;34;20119;-51
2021/03/19 14:55:15;;;;;;;44.78;11.68;;;;;;;;;;4203674;34;20509;-48